sensor_id;sensor_type;location;lat;lon;timestamp;pressure;altitude;pressure_sealevel;temperature;humidity
10948;BME280;5526;42.070;24.752;2023-06-24T00:00:11;98930.69;;;24.02;92.94
10948;BME280;5526;42.070;24.752;2023-06-24T00:02:38;98937.13;;;23.97;92.94
10948;BME280;5526;42.070;24.752;2023-06-24T00:05:09;98944.72;;;23.95;92.81
10948;BME280;5526;42.070;24.752;2023-06-24T00:07:37;98945.94;;;23.98;92.23
10948;BME280;5526;42.070;24.752;2023-06-24T00:10:10;98941.81;;;23.88;92.43
10948;BME280;5526;42.070;24.752;2023-06-24T00:12:37;98931.97;;;23.80;93.03
10948;BME280;5526;42.070;24.752;2023-06-24T00:15:06;98934.88;;;23.87;92.67
10948;BME280;5526;42.070;24.752;2023-06-24T00:17:33;98930.97;;;23.85;92.64
10948;BME280;5526;42.070;24.752;2023-06-24T00:20:00;98927.94;;;23.86;92.77
10948;BME280;5526;42.070;24.752;2023-06-24T00:22:28;98920.78;;;23.78;93.80
10948;BME280;5526;42.070;24.752;2023-06-24T00:24:57;98915.88;;;23.68;94.52
10948;BME280;5526;42.070;24.752;2023-06-24T00:27:24;98914.34;;;23.67;95.46
10948;BME280;5526;42.070;24.752;2023-06-24T00:29:51;98910.84;;;23.67;95.63
10948;BME280;5526;42.070;24.752;2023-06-24T00:32:18;98908.19;;;23.55;96.05
10948;BME280;5526;42.070;24.752;2023-06-24T00:34:45;98911.09;;;23.62;96.01
10948;BME280;5526;42.070;24.752;2023-06-24T00:37:13;98916.84;;;23.48;96.79
10948;BME280;5526;42.070;24.752;2023-06-24T00:39:40;98910.81;;;23.39;97.33
10948;BME280;5526;42.070;24.752;2023-06-24T00:42:08;98909.47;;;23.33;97.56
10948;BME280;5526;42.070;24.752;2023-06-24T00:44:36;98910.28;;;23.34;96.90
10948;BME280;5526;42.070;24.752;2023-06-24T00:47:05;98907.91;;;23.32;96.56
10948;BME280;5526;42.070;24.752;2023-06-24T00:49:33;98902.66;;;23.36;96.23
10948;BME280;5526;42.070;24.752;2023-06-24T00:52:00;98900.31;;;23.34;96.20
10948;BME280;5526;42.070;24.752;2023-06-24T00:54:27;98901.00;;;23.31;96.15
10948;BME280;5526;42.070;24.752;2023-06-24T00:56:57;98896.28;;;23.28;96.20
10948;BME280;5526;42.070;24.752;2023-06-24T00:59:27;98890.03;;;23.24;96.54
10948;BME280;5526;42.070;24.752;2023-06-24T01:01:58;98888.22;;;23.16;97.00
10948;BME280;5526;42.070;24.752;2023-06-24T01:04:27;98888.78;;;23.10;97.43
10948;BME280;5526;42.070;24.752;2023-06-24T01:09:22;98887.13;;;23.05;96.91
10948;BME280;5526;42.070;24.752;2023-06-24T01:11:49;98899.66;;;23.01;97.18
10948;BME280;5526;42.070;24.752;2023-06-24T01:14:17;98897.19;;;22.96;97.12
10948;BME280;5526;42.070;24.752;2023-06-24T01:16:55;98904.03;;;22.82;96.95
10948;BME280;5526;42.070;24.752;2023-06-24T01:19:37;98903.66;;;22.59;98.17
10948;BME280;5526;42.070;24.752;2023-06-24T01:22:19;98899.19;;;22.63;97.77
10948;BME280;5526;42.070;24.752;2023-06-24T01:25:05;98902.00;;;22.67;97.58
10948;BME280;5526;42.070;24.752;2023-06-24T01:28:07;98900.97;;;22.59;98.46
10948;BME280;5526;42.070;24.752;2023-06-24T01:33:47;98891.91;;;22.52;99.44
10948;BME280;5526;42.070;24.752;2023-06-24T01:36:19;98888.00;;;22.49;99.69
10948;BME280;5526;42.070;24.752;2023-06-24T01:38:52;98880.28;;;22.48;99.72
10948;BME280;5526;42.070;24.752;2023-06-24T01:41:24;98892.16;;;22.47;100.00
10948;BME280;5526;42.070;24.752;2023-06-24T01:43:52;98884.09;;;22.47;100.00
10948;BME280;5526;42.070;24.752;2023-06-24T01:46:22;98888.34;;;22.48;100.00
10948;BME280;5526;42.070;24.752;2023-06-24T01:48:55;98889.47;;;22.47;100.00
10948;BME280;5526;42.070;24.752;2023-06-24T01:51:26;98894.22;;;22.41;100.00
10948;BME280;5526;42.070;24.752;2023-06-24T01:54:05;98895.09;;;22.33;100.00
10948;BME280;5526;42.070;24.752;2023-06-24T01:56:34;98902.31;;;22.21;100.00
10948;BME280;5526;42.070;24.752;2023-06-24T01:59:04;98891.59;;;22.21;100.00
10948;BME280;5526;42.070;24.752;2023-06-24T02:01:33;98903.78;;;22.18;100.00
10948;BME280;5526;42.070;24.752;2023-06-24T02:04:04;98907.75;;;22.12;100.00
10948;BME280;5526;42.070;24.752;2023-06-24T02:06:35;98911.91;;;22.10;100.00
10948;BME280;5526;42.070;24.752;2023-06-24T02:09:03;98911.56;;;22.11;100.00
10948;BME280;5526;42.070;24.752;2023-06-24T02:11:33;98919.41;;;22.16;100.00
10948;BME280;5526;42.070;24.752;2023-06-24T02:14:01;98919.50;;;22.08;100.00
10948;BME280;5526;42.070;24.752;2023-06-24T02:16:30;98917.16;;;22.06;100.00
10948;BME280;5526;42.070;24.752;2023-06-24T02:19:00;98920.38;;;22.00;100.00
10948;BME280;5526;42.070;24.752;2023-06-24T02:21:29;98922.34;;;22.03;100.00
10948;BME280;5526;42.070;24.752;2023-06-24T02:23:56;98928.91;;;21.93;100.00
10948;BME280;5526;42.070;24.752;2023-06-24T02:26:25;98936.28;;;21.96;100.00
10948;BME280;5526;42.070;24.752;2023-06-24T02:28:53;98942.91;;;21.99;100.00
10948;BME280;5526;42.070;24.752;2023-06-24T02:31:21;98945.13;;;21.97;100.00
10948;BME280;5526;42.070;24.752;2023-06-24T02:33:48;98947.03;;;21.96;100.00
10948;BME280;5526;42.070;24.752;2023-06-24T02:36:15;98950.81;;;21.95;100.00
10948;BME280;5526;42.070;24.752;2023-06-24T02:38:44;98957.75;;;21.96;100.00
10948;BME280;5526;42.070;24.752;2023-06-24T02:41:11;98952.13;;;21.89;100.00
10948;BME280;5526;42.070;24.752;2023-06-24T02:43:38;98961.91;;;21.85;100.00
10948;BME280;5526;42.070;24.752;2023-06-24T02:46:05;98948.94;;;21.75;100.00
10948;BME280;5526;42.070;24.752;2023-06-24T02:48:36;98958.75;;;21.63;100.00
10948;BME280;5526;42.070;24.752;2023-06-24T02:51:05;98962.59;;;21.53;100.00
10948;BME280;5526;42.070;24.752;2023-06-24T02:53:33;98959.84;;;21.41;100.00
10948;BME280;5526;42.070;24.752;2023-06-24T02:56:04;98958.16;;;21.37;100.00
10948;BME280;5526;42.070;24.752;2023-06-24T02:58:32;98969.63;;;21.37;100.00
10948;BME280;5526;42.070;24.752;2023-06-24T03:01:00;98965.94;;;21.50;99.78
10948;BME280;5526;42.070;24.752;2023-06-24T03:03:28;98958.81;;;21.54;99.59
10948;BME280;5526;42.070;24.752;2023-06-24T03:05:56;98983.31;;;21.44;99.67
10948;BME280;5526;42.070;24.752;2023-06-24T03:08:24;98970.50;;;21.50;99.52
10948;BME280;5526;42.070;24.752;2023-06-24T03:10:54;98962.59;;;21.53;99.63
10948;BME280;5526;42.070;24.752;2023-06-24T03:13:24;98955.25;;;21.71;98.74
10948;BME280;5526;42.070;24.752;2023-06-24T03:15:51;98966.19;;;21.86;97.86
10948;BME280;5526;42.070;24.752;2023-06-24T03:18:19;98969.75;;;22.11;96.99
10948;BME280;5526;42.070;24.752;2023-06-24T03:20:46;98959.88;;;22.23;97.53
10948;BME280;5526;42.070;24.752;2023-06-24T03:23:13;98971.09;;;22.37;97.20
10948;BME280;5526;42.070;24.752;2023-06-24T03:25:41;98965.00;;;22.49;96.13
10948;BME280;5526;42.070;24.752;2023-06-24T03:28:08;98974.31;;;22.63;94.69
10948;BME280;5526;42.070;24.752;2023-06-24T03:30:36;98976.09;;;22.71;93.77
10948;BME280;5526;42.070;24.752;2023-06-24T03:33:03;98971.88;;;22.94;92.48
10948;BME280;5526;42.070;24.752;2023-06-24T03:35:31;98977.72;;;22.96;91.22
10948;BME280;5526;42.070;24.752;2023-06-24T03:37:58;98975.47;;;22.86;91.03
10948;BME280;5526;42.070;24.752;2023-06-24T03:40:26;98973.09;;;22.85;90.89
10948;BME280;5526;42.070;24.752;2023-06-24T03:42:53;98981.75;;;23.02;89.46
10948;BME280;5526;42.070;24.752;2023-06-24T03:45:20;98981.53;;;22.95;89.11
10948;BME280;5526;42.070;24.752;2023-06-24T03:47:48;98980.50;;;23.00;88.68
10948;BME280;5526;42.070;24.752;2023-06-24T03:50:15;98970.91;;;23.11;87.36
10948;BME280;5526;42.070;24.752;2023-06-24T03:52:42;98979.41;;;23.13;87.33
10948;BME280;5526;42.070;24.752;2023-06-24T03:55:11;98971.38;;;23.25;86.74
10948;BME280;5526;42.070;24.752;2023-06-24T03:57:38;98973.28;;;23.36;86.17
10948;BME280;5526;42.070;24.752;2023-06-24T04:00:06;98977.41;;;23.46;85.47
10948;BME280;5526;42.070;24.752;2023-06-24T04:02:40;98970.34;;;23.41;85.46
10948;BME280;5526;42.070;24.752;2023-06-24T04:05:09;98970.88;;;23.59;84.05
10948;BME280;5526;42.070;24.752;2023-06-24T04:07:36;98969.06;;;23.75;83.34
10948;BME280;5526;42.070;24.752;2023-06-24T04:10:06;98960.06;;;23.83;82.87
10948;BME280;5526;42.070;24.752;2023-06-24T04:12:34;98964.41;;;23.60;83.53
10948;BME280;5526;42.070;24.752;2023-06-24T04:15:02;98954.03;;;23.34;85.19
10948;BME280;5526;42.070;24.752;2023-06-24T04:17:30;98970.22;;;23.62;83.72
10948;BME280;5526;42.070;24.752;2023-06-24T04:19:57;98966.19;;;23.68;83.55
10948;BME280;5526;42.070;24.752;2023-06-24T04:22:26;98981.06;;;23.65;83.33
10948;BME280;5526;42.070;24.752;2023-06-24T04:24:53;98981.28;;;23.60;83.70
10948;BME280;5526;42.070;24.752;2023-06-24T04:27:20;98985.00;;;23.20;85.60
10948;BME280;5526;42.070;24.752;2023-06-24T04:29:47;98989.06;;;23.38;85.28
10948;BME280;5526;42.070;24.752;2023-06-24T04:32:14;98999.81;;;23.26;85.66
10948;BME280;5526;42.070;24.752;2023-06-24T04:34:41;99000.53;;;23.02;86.38
10948;BME280;5526;42.070;24.752;2023-06-24T04:37:08;99005.03;;;23.22;85.70
10948;BME280;5526;42.070;24.752;2023-06-24T04:39:36;99010.94;;;23.16;86.18
10948;BME280;5526;42.070;24.752;2023-06-24T04:42:04;99020.28;;;23.30;86.20
10948;BME280;5526;42.070;24.752;2023-06-24T04:44:31;99016.00;;;23.17;87.44
10948;BME280;5526;42.070;24.752;2023-06-24T04:46:58;99024.63;;;23.47;85.69
10948;BME280;5526;42.070;24.752;2023-06-24T04:49:25;99029.16;;;22.86;90.43
10948;BME280;5526;42.070;24.752;2023-06-24T04:51:52;99024.91;;;22.85;89.26
10948;BME280;5526;42.070;24.752;2023-06-24T04:54:19;99028.28;;;23.06;88.26
10948;BME280;5526;42.070;24.752;2023-06-24T04:56:48;99036.63;;;23.37;86.92
10948;BME280;5526;42.070;24.752;2023-06-24T04:59:16;99038.28;;;23.66;85.75
10948;BME280;5526;42.070;24.752;2023-06-24T05:01:43;99036.78;;;24.04;83.83
10948;BME280;5526;42.070;24.752;2023-06-24T05:04:10;99042.56;;;24.18;83.03
10948;BME280;5526;42.070;24.752;2023-06-24T05:06:37;99042.53;;;24.30;82.34
10948;BME280;5526;42.070;24.752;2023-06-24T05:09:04;99039.59;;;24.35;83.34
10948;BME280;5526;42.070;24.752;2023-06-24T05:11:31;99040.53;;;24.55;82.48
10948;BME280;5526;42.070;24.752;2023-06-24T05:14:00;99032.53;;;24.58;82.82
10948;BME280;5526;42.070;24.752;2023-06-24T05:16:28;99035.84;;;24.12;85.14
10948;BME280;5526;42.070;24.752;2023-06-24T05:18:56;99031.22;;;24.25;84.63
10948;BME280;5526;42.070;24.752;2023-06-24T05:21:23;99027.66;;;24.21;84.99
10948;BME280;5526;42.070;24.752;2023-06-24T05:23:50;99042.09;;;24.56;84.27
10948;BME280;5526;42.070;24.752;2023-06-24T05:26:17;99039.97;;;24.62;83.94
10948;BME280;5526;42.070;24.752;2023-06-24T05:28:44;99043.47;;;24.78;83.46
10948;BME280;5526;42.070;24.752;2023-06-24T05:31:13;99044.44;;;24.58;84.43
10948;BME280;5526;42.070;24.752;2023-06-24T05:33:40;99035.53;;;24.69;84.14
10948;BME280;5526;42.070;24.752;2023-06-24T05:36:07;99039.22;;;24.92;83.66
10948;BME280;5526;42.070;24.752;2023-06-24T05:38:34;99032.56;;;25.02;83.26
10948;BME280;5526;42.070;24.752;2023-06-24T05:41:01;99045.19;;;25.29;82.62
10948;BME280;5526;42.070;24.752;2023-06-24T05:43:29;99040.84;;;25.24;83.38
10948;BME280;5526;42.070;24.752;2023-06-24T05:45:56;99047.31;;;25.23;83.67
10948;BME280;5526;42.070;24.752;2023-06-24T05:48:24;99051.16;;;25.38;83.29
10948;BME280;5526;42.070;24.752;2023-06-24T05:50:52;99048.97;;;25.28;84.76
10948;BME280;5526;42.070;24.752;2023-06-24T05:53:19;99036.78;;;25.65;83.36
10948;BME280;5526;42.070;24.752;2023-06-24T05:55:46;99037.50;;;25.62;84.62
10948;BME280;5526;42.070;24.752;2023-06-24T05:58:13;99039.34;;;25.92;83.59
10948;BME280;5526;42.070;24.752;2023-06-24T06:00:41;99041.59;;;25.90;83.51
10948;BME280;5526;42.070;24.752;2023-06-24T06:03:08;99045.72;;;26.38;81.55
10948;BME280;5526;42.070;24.752;2023-06-24T06:05:37;99044.38;;;25.94;83.28
10948;BME280;5526;42.070;24.752;2023-06-24T06:08:04;99052.59;;;26.16;81.98
10948;BME280;5526;42.070;24.752;2023-06-24T06:10:31;99042.16;;;26.15;82.59
10948;BME280;5526;42.070;24.752;2023-06-24T06:12:59;99042.50;;;26.51;81.00
10948;BME280;5526;42.070;24.752;2023-06-24T06:15:26;99041.72;;;26.70;78.71
10948;BME280;5526;42.070;24.752;2023-06-24T06:17:53;99039.88;;;26.74;78.55
10948;BME280;5526;42.070;24.752;2023-06-24T06:20:20;99037.19;;;26.74;76.99
10948;BME280;5526;42.070;24.752;2023-06-24T06:22:48;99031.22;;;26.65;76.41
10948;BME280;5526;42.070;24.752;2023-06-24T06:25:16;99031.28;;;26.68;77.72
10948;BME280;5526;42.070;24.752;2023-06-24T06:27:44;99033.72;;;26.73;77.58
10948;BME280;5526;42.070;24.752;2023-06-24T06:30:12;99020.56;;;26.72;77.04
10948;BME280;5526;42.070;24.752;2023-06-24T06:32:40;99018.41;;;27.03;76.25
10948;BME280;5526;42.070;24.752;2023-06-24T06:35:08;99016.19;;;27.09;76.35
10948;BME280;5526;42.070;24.752;2023-06-24T06:37:35;99016.81;;;27.21;75.85
10948;BME280;5526;42.070;24.752;2023-06-24T06:40:05;99023.00;;;27.48;75.05
10948;BME280;5526;42.070;24.752;2023-06-24T06:42:32;99020.50;;;27.36;75.56
10948;BME280;5526;42.070;24.752;2023-06-24T06:44:59;99029.88;;;27.94;72.25
10948;BME280;5526;42.070;24.752;2023-06-24T06:47:26;99020.47;;;27.84;71.06
10948;BME280;5526;42.070;24.752;2023-06-24T06:49:54;99020.78;;;27.53;72.88
10948;BME280;5526;42.070;24.752;2023-06-24T06:52:21;99019.16;;;27.23;74.80
10948;BME280;5526;42.070;24.752;2023-06-24T06:54:48;99022.38;;;27.32;74.31
10948;BME280;5526;42.070;24.752;2023-06-24T06:57:16;99018.06;;;27.79;71.48
10948;BME280;5526;42.070;24.752;2023-06-24T06:59:44;99011.13;;;28.08;70.22
10948;BME280;5526;42.070;24.752;2023-06-24T07:02:11;99011.50;;;28.07;69.53
10948;BME280;5526;42.070;24.752;2023-06-24T07:04:38;99007.78;;;28.18;70.47
10948;BME280;5526;42.070;24.752;2023-06-24T07:07:05;99016.47;;;28.34;69.70
10948;BME280;5526;42.070;24.752;2023-06-24T07:09:32;99016.31;;;28.90;66.99
10948;BME280;5526;42.070;24.752;2023-06-24T07:11:59;99013.81;;;28.74;66.39
10948;BME280;5526;42.070;24.752;2023-06-24T07:14:28;99012.78;;;28.86;64.82
10948;BME280;5526;42.070;24.752;2023-06-24T07:16:55;99007.28;;;28.75;66.47
10948;BME280;5526;42.070;24.752;2023-06-24T07:19:23;99010.28;;;29.07;64.24
10948;BME280;5526;42.070;24.752;2023-06-24T07:21:50;98998.00;;;29.20;64.08
10948;BME280;5526;42.070;24.752;2023-06-24T07:24:18;99003.50;;;29.30;63.78
10948;BME280;5526;42.070;24.752;2023-06-24T07:26:45;98999.53;;;29.17;64.35
10948;BME280;5526;42.070;24.752;2023-06-24T07:29:12;98998.53;;;29.39;63.28
10948;BME280;5526;42.070;24.752;2023-06-24T07:31:40;99003.81;;;29.18;63.18
10948;BME280;5526;42.070;24.752;2023-06-24T07:34:08;99002.03;;;29.43;62.96
10948;BME280;5526;42.070;24.752;2023-06-24T07:36:35;99003.47;;;29.81;61.47
10948;BME280;5526;42.070;24.752;2023-06-24T07:39:02;99000.28;;;29.68;61.66
10948;BME280;5526;42.070;24.752;2023-06-24T07:41:29;99004.72;;;29.97;60.14
10948;BME280;5526;42.070;24.752;2023-06-24T07:43:56;99001.75;;;30.27;59.55
10948;BME280;5526;42.070;24.752;2023-06-24T07:46:24;98996.31;;;30.23;59.69
10948;BME280;5526;42.070;24.752;2023-06-24T07:48:54;99003.38;;;30.49;57.54
10948;BME280;5526;42.070;24.752;2023-06-24T07:51:21;99001.72;;;30.16;58.45
10948;BME280;5526;42.070;24.752;2023-06-24T07:53:48;99001.00;;;30.33;58.94
10948;BME280;5526;42.070;24.752;2023-06-24T07:56:16;99004.09;;;30.28;58.66
10948;BME280;5526;42.070;24.752;2023-06-24T07:58:43;99002.53;;;30.31;58.11
10948;BME280;5526;42.070;24.752;2023-06-24T08:01:10;99010.72;;;30.41;57.98
10948;BME280;5526;42.070;24.752;2023-06-24T08:03:37;99007.28;;;30.65;56.06
10948;BME280;5526;42.070;24.752;2023-06-24T08:06:06;99013.56;;;30.83;54.37
10948;BME280;5526;42.070;24.752;2023-06-24T08:08:33;99012.00;;;30.89;54.89
10948;BME280;5526;42.070;24.752;2023-06-24T08:11:02;99012.63;;;30.23;56.73
10948;BME280;5526;42.070;24.752;2023-06-24T08:13:30;99025.53;;;30.58;56.58
10948;BME280;5526;42.070;24.752;2023-06-24T08:15:57;99017.78;;;30.67;55.76
10948;BME280;5526;42.070;24.752;2023-06-24T08:18:24;99020.38;;;30.32;56.80
10948;BME280;5526;42.070;24.752;2023-06-24T08:20:51;99008.38;;;30.36;57.17
10948;BME280;5526;42.070;24.752;2023-06-24T08:23:20;99013.94;;;30.85;54.81
10948;BME280;5526;42.070;24.752;2023-06-24T08:25:47;99013.47;;;30.52;55.93
10948;BME280;5526;42.070;24.752;2023-06-24T08:28:14;99022.09;;;30.85;55.06
10948;BME280;5526;42.070;24.752;2023-06-24T08:30:41;99022.53;;;31.43;52.53
10948;BME280;5526;42.070;24.752;2023-06-24T08:33:08;99015.06;;;31.76;51.61
10948;BME280;5526;42.070;24.752;2023-06-24T08:35:36;99008.09;;;31.64;51.84
10948;BME280;5526;42.070;24.752;2023-06-24T08:38:03;99004.97;;;31.87;50.58
10948;BME280;5526;42.070;24.752;2023-06-24T08:40:31;98999.41;;;32.18;49.45
10948;BME280;5526;42.070;24.752;2023-06-24T08:42:59;99005.69;;;32.05;49.96
10948;BME280;5526;42.070;24.752;2023-06-24T08:45:26;99004.13;;;32.04;50.31
10948;BME280;5526;42.070;24.752;2023-06-24T08:47:54;99008.84;;;31.93;50.10
10948;BME280;5526;42.070;24.752;2023-06-24T08:50:23;99002.84;;;32.26;49.90
10948;BME280;5526;42.070;24.752;2023-06-24T08:52:54;98998.28;;;32.81;50.69
10948;BME280;5526;42.070;24.752;2023-06-24T08:55:22;99007.06;;;32.48;49.10
10948;BME280;5526;42.070;24.752;2023-06-24T08:57:51;98998.03;;;32.58;49.05
10948;BME280;5526;42.070;24.752;2023-06-24T09:00:19;99000.31;;;32.66;47.16
10948;BME280;5526;42.070;24.752;2023-06-24T09:02:46;99007.44;;;32.53;46.93
10948;BME280;5526;42.070;24.752;2023-06-24T09:05:13;99008.56;;;32.56;46.87
10948;BME280;5526;42.070;24.752;2023-06-24T09:07:40;99008.59;;;32.49;47.33
10948;BME280;5526;42.070;24.752;2023-06-24T09:10:09;99005.38;;;32.68;46.22
10948;BME280;5526;42.070;24.752;2023-06-24T09:12:36;99003.56;;;33.05;45.49
10948;BME280;5526;42.070;24.752;2023-06-24T09:15:05;98996.97;;;33.03;44.89
10948;BME280;5526;42.070;24.752;2023-06-24T09:17:32;99001.56;;;33.13;45.30
10948;BME280;5526;42.070;24.752;2023-06-24T09:20:04;98991.06;;;33.08;44.25
10948;BME280;5526;42.070;24.752;2023-06-24T09:22:31;98989.13;;;32.50;46.65
10948;BME280;5526;42.070;24.752;2023-06-24T09:25:00;98987.09;;;32.68;45.14
10948;BME280;5526;42.070;24.752;2023-06-24T09:27:31;98982.94;;;33.01;44.97
10948;BME280;5526;42.070;24.752;2023-06-24T09:29:59;98983.38;;;32.96;45.15
10948;BME280;5526;42.070;24.752;2023-06-24T09:32:29;98968.66;;;32.90;44.65
10948;BME280;5526;42.070;24.752;2023-06-24T09:34:57;98969.50;;;32.76;45.07
10948;BME280;5526;42.070;24.752;2023-06-24T09:37:24;98976.44;;;32.88;44.72
10948;BME280;5526;42.070;24.752;2023-06-24T09:39:56;98966.81;;;32.69;44.72
10948;BME280;5526;42.070;24.752;2023-06-24T09:42:23;98966.88;;;32.62;45.48
10948;BME280;5526;42.070;24.752;2023-06-24T09:44:54;98965.56;;;32.84;45.34
10948;BME280;5526;42.070;24.752;2023-06-24T09:47:21;98954.44;;;33.09;44.27
10948;BME280;5526;42.070;24.752;2023-06-24T09:49:53;98940.50;;;33.00;44.55
10948;BME280;5526;42.070;24.752;2023-06-24T09:52:21;98934.19;;;33.10;45.01
10948;BME280;5526;42.070;24.752;2023-06-24T09:54:51;98941.91;;;33.15;43.48
10948;BME280;5526;42.070;24.752;2023-06-24T09:57:20;98930.81;;;33.36;43.92
10948;BME280;5526;42.070;24.752;2023-06-24T09:59:51;98917.38;;;33.52;45.20
10948;BME280;5526;42.070;24.752;2023-06-24T10:02:18;98924.16;;;33.40;44.08
10948;BME280;5526;42.070;24.752;2023-06-24T10:04:46;98914.03;;;33.41;44.29
10948;BME280;5526;42.070;24.752;2023-06-24T10:07:15;98906.31;;;33.66;43.53
10948;BME280;5526;42.070;24.752;2023-06-24T10:09:43;98911.63;;;33.76;43.69
10948;BME280;5526;42.070;24.752;2023-06-24T10:12:10;98915.22;;;34.03;43.03
10948;BME280;5526;42.070;24.752;2023-06-24T10:14:37;98905.72;;;34.41;42.08
10948;BME280;5526;42.070;24.752;2023-06-24T10:17:05;98906.59;;;34.05;43.00
10948;BME280;5526;42.070;24.752;2023-06-24T10:19:38;98899.22;;;34.02;42.93
10948;BME280;5526;42.070;24.752;2023-06-24T10:22:08;98899.53;;;33.77;44.87
10948;BME280;5526;42.070;24.752;2023-06-24T10:24:39;98898.03;;;33.73;44.02
10948;BME280;5526;42.070;24.752;2023-06-24T10:27:08;98898.34;;;34.08;45.12
10948;BME280;5526;42.070;24.752;2023-06-24T10:29:36;98894.53;;;34.29;43.97
10948;BME280;5526;42.070;24.752;2023-06-24T10:32:05;98894.84;;;34.61;43.45
10948;BME280;5526;42.070;24.752;2023-06-24T10:34:43;98895.56;;;33.82;43.58
10948;BME280;5526;42.070;24.752;2023-06-24T10:37:18;98891.25;;;33.88;43.94
10948;BME280;5526;42.070;24.752;2023-06-24T10:39:51;98889.00;;;34.36;42.54
10948;BME280;5526;42.070;24.752;2023-06-24T10:42:32;98883.59;;;34.82;40.48
10948;BME280;5526;42.070;24.752;2023-06-24T10:45:01;98879.75;;;34.53;41.33
10948;BME280;5526;42.070;24.752;2023-06-24T10:47:30;98881.56;;;34.10;42.12
10948;BME280;5526;42.070;24.752;2023-06-24T10:49:57;98878.25;;;34.22;42.56
10948;BME280;5526;42.070;24.752;2023-06-24T10:52:24;98874.50;;;34.12;42.64
10948;BME280;5526;42.070;24.752;2023-06-24T10:54:53;98868.28;;;34.61;43.38
10948;BME280;5526;42.070;24.752;2023-06-24T10:57:22;98862.66;;;34.95;41.02
10948;BME280;5526;42.070;24.752;2023-06-24T10:59:50;98860.00;;;35.11;41.39
10948;BME280;5526;42.070;24.752;2023-06-24T11:02:18;98857.75;;;35.26;40.36
10948;BME280;5526;42.070;24.752;2023-06-24T11:04:47;98845.13;;;34.92;41.66
10948;BME280;5526;42.070;24.752;2023-06-24T11:07:16;98838.66;;;34.83;42.24
10948;BME280;5526;42.070;24.752;2023-06-24T11:09:48;98835.06;;;34.86;41.37
10948;BME280;5526;42.070;24.752;2023-06-24T11:12:17;98836.03;;;35.19;41.87
10948;BME280;5526;42.070;24.752;2023-06-24T11:14:45;98828.25;;;35.56;40.08
10948;BME280;5526;42.070;24.752;2023-06-24T11:17:12;98835.06;;;36.03;40.59
10948;BME280;5526;42.070;24.752;2023-06-24T11:19:39;98820.25;;;36.49;39.24
10948;BME280;5526;42.070;24.752;2023-06-24T11:22:07;98806.13;;;36.50;38.72
10948;BME280;5526;42.070;24.752;2023-06-24T11:24:35;98804.47;;;35.69;40.21
10948;BME280;5526;42.070;24.752;2023-06-24T11:27:04;98795.91;;;36.19;39.48
10948;BME280;5526;42.070;24.752;2023-06-24T11:29:33;98789.63;;;35.86;39.71
10948;BME280;5526;42.070;24.752;2023-06-24T11:32:01;98796.25;;;36.05;39.31
10948;BME280;5526;42.070;24.752;2023-06-24T11:34:29;98783.56;;;36.11;39.12
10948;BME280;5526;42.070;24.752;2023-06-24T11:36:56;98793.56;;;35.85;39.76
10948;BME280;5526;42.070;24.752;2023-06-24T11:39:24;98794.47;;;36.14;39.28
10948;BME280;5526;42.070;24.752;2023-06-24T11:41:52;98783.94;;;35.97;38.47
10948;BME280;5526;42.070;24.752;2023-06-24T11:44:20;98792.22;;;36.09;38.46
10948;BME280;5526;42.070;24.752;2023-06-24T11:46:49;98779.19;;;35.81;38.57
10948;BME280;5526;42.070;24.752;2023-06-24T11:49:18;98776.56;;;35.74;38.15
10948;BME280;5526;42.070;24.752;2023-06-24T11:51:46;98766.38;;;35.59;37.63
10948;BME280;5526;42.070;24.752;2023-06-24T11:54:16;98772.50;;;35.98;36.21
10948;BME280;5526;42.070;24.752;2023-06-24T11:56:48;98771.50;;;35.92;36.83
10948;BME280;5526;42.070;24.752;2023-06-24T11:59:17;98766.81;;;35.93;36.72
10948;BME280;5526;42.070;24.752;2023-06-24T12:01:45;98761.38;;;36.37;35.60
10948;BME280;5526;42.070;24.752;2023-06-24T12:04:14;98754.88;;;36.47;35.77
10948;BME280;5526;42.070;24.752;2023-06-24T12:06:41;98763.91;;;36.76;35.83
10948;BME280;5526;42.070;24.752;2023-06-24T12:09:09;98760.72;;;36.78;35.92
10948;BME280;5526;42.070;24.752;2023-06-24T12:11:36;98746.22;;;37.06;35.68
10948;BME280;5526;42.070;24.752;2023-06-24T12:14:05;98746.03;;;37.13;35.10
10948;BME280;5526;42.070;24.752;2023-06-24T12:16:32;98751.63;;;37.09;35.27
10948;BME280;5526;42.070;24.752;2023-06-24T12:18:59;98749.16;;;37.40;33.32
10948;BME280;5526;42.070;24.752;2023-06-24T12:21:27;98740.94;;;37.52;32.23
10948;BME280;5526;42.070;24.752;2023-06-24T12:23:55;98744.13;;;37.26;33.30
10948;BME280;5526;42.070;24.752;2023-06-24T12:26:22;98736.50;;;37.17;33.19
10948;BME280;5526;42.070;24.752;2023-06-24T12:28:49;98734.81;;;37.07;33.43
10948;BME280;5526;42.070;24.752;2023-06-24T12:31:16;98716.00;;;37.34;33.74
10948;BME280;5526;42.070;24.752;2023-06-24T12:33:43;98707.00;;;37.34;32.21
10948;BME280;5526;42.070;24.752;2023-06-24T12:36:10;98710.50;;;37.47;33.00
10948;BME280;5526;42.070;24.752;2023-06-24T12:38:39;98705.69;;;37.26;32.55
10948;BME280;5526;42.070;24.752;2023-06-24T12:41:06;98701.91;;;37.20;32.92
10948;BME280;5526;42.070;24.752;2023-06-24T12:43:34;98693.19;;;37.09;33.54
10948;BME280;5526;42.070;24.752;2023-06-24T12:46:01;98694.81;;;37.72;32.76
10948;BME280;5526;42.070;24.752;2023-06-24T12:48:28;98699.56;;;37.59;32.24
10948;BME280;5526;42.070;24.752;2023-06-24T12:50:55;98682.16;;;37.37;32.27
10948;BME280;5526;42.070;24.752;2023-06-24T12:53:22;98673.25;;;37.33;32.53
10948;BME280;5526;42.070;24.752;2023-06-24T12:55:51;98669.44;;;37.31;32.67
10948;BME280;5526;42.070;24.752;2023-06-24T12:58:19;98672.72;;;37.38;33.09
10948;BME280;5526;42.070;24.752;2023-06-24T13:00:47;98669.03;;;37.04;33.29
10948;BME280;5526;42.070;24.752;2023-06-24T13:03:14;98667.00;;;37.58;32.03
10948;BME280;5526;42.070;24.752;2023-06-24T13:05:41;98650.63;;;37.79;31.33
10948;BME280;5526;42.070;24.752;2023-06-24T13:08:08;98651.34;;;38.05;31.24
10948;BME280;5526;42.070;24.752;2023-06-24T13:10:36;98651.75;;;38.03;31.16